»·PEaware :: N49872 KSBA-KEMT

N49872 :: KSBA-KEMT

FLIGHT INFORMATION

Flight Status: Arrived
Operator: Privately registered:
United States
More flights under this callsign
Pilot: Jeff K. (12978)
Aircraft: BEECH AIRCRAFT BARON
(BE58)
More flights by this aircraft type
Origin: KSBA Santa Barbara Mun
United States
Destination: KEMT El Monte
United States
More flights between these airports :: More routes between these airports
Route: +FLOUT5 RZS V386 FIM V186 PDZ
File this flight plan on PilotEdge
Remarks:
Altitude:
(Current/Filed)
8,000ft
Speed:
(Current/Filed)
160kts
Departed: 16-Jul-17 11:08 AM
Arrived: 16-Jul-17 12:06 PM
Distance/Time
Traveled:
92nm/0:58
Distance/Time
To Go:
Arrived

Flight Plot

Page will automatically refresh every two minutes.

Flight plan parsing failed; only flown route is shown


Map Options




Map Legend


Flown Route
Filed Route
Departure Airport
Arrival Airport
Navaid (VOR, NDB)
Fix

Horizontal Profiles

Position Reports

Time Latitude Longitude Heading Altitude Ground
Speed
16-Jul-17 10:50 34.422706 -119.836166 275 7ft 0kts
16-Jul-17 10:51 34.422706 -119.836166 275 7ft 0kts
16-Jul-17 10:52 34.422706 -119.836166 275 7ft 0kts
16-Jul-17 10:53 34.422706 -119.836166 275 7ft 0kts
16-Jul-17 10:54 34.422706 -119.836166 275 7ft 0kts
16-Jul-17 10:55 34.422706 -119.836166 275 7ft 0kts
16-Jul-17 10:56 34.422706 -119.836166 275 7ft 0kts
16-Jul-17 10:57 34.422706 -119.836166 275 7ft 0kts
16-Jul-17 10:58 34.422706 -119.836166 275 7ft 0kts
16-Jul-17 10:59 34.422706 -119.836166 275 7ft 0kts
16-Jul-17 11:00 34.422706 -119.836166 275 7ft 0kts
16-Jul-17 11:01 34.422706 -119.836166 275 7ft 0kts
16-Jul-17 11:02 34.422706 -119.836166 275 7ft 0kts
16-Jul-17 11:03 34.422706 -119.836166 275 7ft 0kts
16-Jul-17 11:04 34.422723 -119.836769 264 9ft 11kts
16-Jul-17 11:05 34.425682 -119.838032 345 9ft 16kts
16-Jul-17 11:06 34.426591 -119.835573 25 7ft 0kts
16-Jul-17 11:07 34.426591 -119.835573 24 7ft 0kts
16-Jul-17 11:08 34.426591 -119.835573 24 7ft 0kts
16-Jul-17 11:09 34.427026 -119.834612 10 7ft 0kts
16-Jul-17 11:10 34.427849 -119.836969 268 8ft 38kts
16-Jul-17 11:11 34.418649 -119.869572 205 903ft 144kts
16-Jul-17 11:12 34.380425 -119.864196 200 2078ft 145kts
16-Jul-17 11:13 34.345506 -119.889128 206 2956ft 151kts
16-Jul-17 11:14 34.309912 -119.917555 212 3487ft 152kts
16-Jul-17 11:15 34.274287 -119.942515 201 4345ft 134kts
16-Jul-17 11:16 34.249432 -119.971098 280 5335ft 127kts
16-Jul-17 11:17 34.276731 -119.979266 46 6218ft 132kts
16-Jul-17 11:18 34.300686 -119.941611 52 6652ft 157kts
16-Jul-17 11:19 34.322334 -119.894706 81 6876ft 165kts
16-Jul-17 11:20 34.323504 -119.838526 92 7003ft 170kts
16-Jul-17 11:21 34.320088 -119.779556 95 6932ft 176kts
16-Jul-17 11:22 34.315802 -119.721217 96 6964ft 170kts
16-Jul-17 11:23 34.311143 -119.663808 90 6957ft 173kts
16-Jul-17 11:24 34.308382 -119.605327 94 6920ft 174kts
16-Jul-17 11:25 34.304102 -119.547544 94 6918ft 169kts
16-Jul-17 11:26 34.299946 -119.491432 94 6919ft 167kts
16-Jul-17 11:27 34.295811 -119.435483 94 6919ft 166kts
16-Jul-17 11:28 34.286918 -119.380822 99 6920ft 166kts
16-Jul-17 11:29 34.280758 -119.325452 93 6919ft 166kts
16-Jul-17 11:30 34.276208 -119.269783 95 6920ft 166kts
16-Jul-17 11:31 34.272126 -119.213906 94 6919ft 167kts
16-Jul-17 11:32 34.268348 -119.157806 94 6920ft 167kts
16-Jul-17 11:33 34.264709 -119.101909 94 6920ft 167kts
16-Jul-17 11:34 34.261044 -119.045679 94 6920ft 167kts
16-Jul-17 11:35 34.257379 -118.989793 94 6920ft 167kts
16-Jul-17 11:36 34.253675 -118.933533 94 6920ft 167kts
16-Jul-17 11:37 34.249967 -118.877494 94 6920ft 167kts
16-Jul-17 11:38 34.246244 -118.821500 94 6919ft 167kts
16-Jul-17 11:39 34.242480 -118.765441 94 6920ft 167kts
16-Jul-17 11:40 34.238700 -118.709515 94 6920ft 167kts
16-Jul-17 11:41 34.234826 -118.653410 95 6919ft 167kts
16-Jul-17 11:42 34.231472 -118.597261 92 6931ft 167kts
16-Jul-17 11:43 34.226796 -118.541494 92 6933ft 167kts
16-Jul-17 11:44 34.222971 -118.485514 108 6739ft 170kts
16-Jul-17 11:45 34.207113 -118.436283 108 5596ft 169kts
16-Jul-17 11:46 34.194901 -118.395592 110 4716ft 161kts
16-Jul-17 11:47 34.181343 -118.351063 108 4042ft 150kts
16-Jul-17 11:48 34.167256 -118.301568 110 4113ft 167kts
16-Jul-17 11:49 34.151234 -118.246787 109 4015ft 175kts
16-Jul-17 11:50 34.135330 -118.190923 109 3994ft 175kts
16-Jul-17 11:51 34.118983 -118.136235 110 3975ft 173kts
16-Jul-17 11:52 34.102641 -118.082585 111 4012ft 171kts
16-Jul-17 11:53 34.090100 -118.027359 101 4085ft 173kts
16-Jul-17 11:54 34.084974 -117.970007 90 4071ft 175kts
16-Jul-17 11:55 34.085129 -117.911755 92 3993ft 174kts
16-Jul-17 11:56 34.081484 -117.860591 93 4003ft 166kts
16-Jul-17 11:57 34.080083 -117.818434 90 3996ft 162kts
16-Jul-17 11:58 34.070710 -117.768597 144 3990ft 147kts
16-Jul-17 11:59 34.035424 -117.762490 172 3964ft 125kts
16-Jul-17 12:00 34.025414 -117.732964 39 3941ft 122kts
16-Jul-17 12:01 34.053235 -117.747340 313 4001ft 133kts
16-Jul-17 12:02 34.074816 -117.781223 302 3926ft 127kts
16-Jul-17 12:03 34.078637 -117.819871 269 3672ft 121kts
16-Jul-17 12:04 34.081880 -117.857445 271 3419ft 134kts
16-Jul-17 12:05 34.083119 -117.903185 274 2893ft 134kts
16-Jul-17 12:06 34.085099 -117.944879 272 2229ft 114kts
16-Jul-17 12:07 34.087167 -117.985334 280 1374ft 121kts
16-Jul-17 12:08 34.098975 -118.020424 273 709ft 104kts
16-Jul-17 12:09 34.083754 -118.036132 204 280ft 23kts
16-Jul-17 12:10 34.083263 -118.035769 24 281ft 8kts
16-Jul-17 12:11 34.084449 -118.034161 19 284ft 4kts

Navigation Log

Ident Type
Flight plan parsing failed, navigation log unavailable